sensor_id;sensor_type;location;lat;lon;timestamp;P1;durP1;ratioP1;P2;durP2;ratioP2
18320;SDS011;54904;54.350;18.664;2023-05-10T00:02:05;2.00;;;1.80;;
18320;SDS011;54904;54.350;18.664;2023-05-10T00:04:32;2.73;;;1.63;;
18320;SDS011;54904;54.350;18.664;2023-05-10T00:06:59;1.73;;;1.63;;
18320;SDS011;54904;54.350;18.664;2023-05-10T00:09:26;2.47;;;1.83;;
18320;SDS011;54904;54.350;18.664;2023-05-10T00:11:55;2.03;;;1.80;;
18320;SDS011;54904;54.350;18.664;2023-05-10T00:14:23;1.70;;;1.60;;
18320;SDS011;54904;54.350;18.664;2023-05-10T00:16:50;1.80;;;1.70;;
18320;SDS011;54904;54.350;18.664;2023-05-10T00:19:17;3.63;;;1.90;;
18320;SDS011;54904;54.350;18.664;2023-05-10T00:21:44;7.07;;;2.07;;
18320;SDS011;54904;54.350;18.664;2023-05-10T00:24:11;2.33;;;2.00;;
18320;SDS011;54904;54.350;18.664;2023-05-10T00:26:38;1.87;;;1.77;;
18320;SDS011;54904;54.350;18.664;2023-05-10T00:29:09;1.80;;;1.70;;
18320;SDS011;54904;54.350;18.664;2023-05-10T00:31:36;1.50;;;1.40;;
18320;SDS011;54904;54.350;18.664;2023-05-10T00:34:03;1.33;;;1.20;;
18320;SDS011;54904;54.350;18.664;2023-05-10T00:36:30;1.57;;;1.47;;
18320;SDS011;54904;54.350;18.664;2023-05-10T00:38:57;1.37;;;1.27;;
18320;SDS011;54904;54.350;18.664;2023-05-10T00:41:25;1.43;;;1.33;;
18320;SDS011;54904;54.350;18.664;2023-05-10T00:43:57;2.03;;;1.47;;
18320;SDS011;54904;54.350;18.664;2023-05-10T00:46:27;2.10;;;1.23;;
18320;SDS011;54904;54.350;18.664;2023-05-10T00:48:54;1.37;;;1.27;;
18320;SDS011;54904;54.350;18.664;2023-05-10T00:51:22;1.40;;;1.30;;
18320;SDS011;54904;54.350;18.664;2023-05-10T00:53:53;1.43;;;1.33;;
18320;SDS011;54904;54.350;18.664;2023-05-10T00:56:21;1.40;;;1.30;;
18320;SDS011;54904;54.350;18.664;2023-05-10T00:58:49;2.30;;;1.40;;
18320;SDS011;54904;54.350;18.664;2023-05-10T01:01:17;1.87;;;1.40;;
18320;SDS011;54904;54.350;18.664;2023-05-10T01:03:45;1.40;;;1.30;;
18320;SDS011;54904;54.350;18.664;2023-05-10T01:06:14;1.67;;;1.50;;
18320;SDS011;54904;54.350;18.664;2023-05-10T01:08:42;1.50;;;1.40;;
18320;SDS011;54904;54.350;18.664;2023-05-10T01:11:10;1.67;;;1.40;;
18320;SDS011;54904;54.350;18.664;2023-05-10T01:13:40;1.93;;;1.47;;
18320;SDS011;54904;54.350;18.664;2023-05-10T01:16:09;2.70;;;1.47;;
18320;SDS011;54904;54.350;18.664;2023-05-10T01:18:37;2.20;;;1.50;;
18320;SDS011;54904;54.350;18.664;2023-05-10T01:21:17;1.93;;;1.60;;
18320;SDS011;54904;54.350;18.664;2023-05-10T01:23:56;1.53;;;1.40;;
18320;SDS011;54904;54.350;18.664;2023-05-10T01:26:49;1.40;;;1.30;;
18320;SDS011;54904;54.350;18.664;2023-05-10T01:29:37;1.30;;;1.20;;
18320;SDS011;54904;54.350;18.664;2023-05-10T01:32:29;1.10;;;1.10;;
18320;SDS011;54904;54.350;18.664;2023-05-10T01:35:02;1.60;;;1.50;;
18320;SDS011;54904;54.350;18.664;2023-05-10T01:37:36;1.57;;;1.47;;
18320;SDS011;54904;54.350;18.664;2023-05-10T01:40:11;1.50;;;1.40;;
18320;SDS011;54904;54.350;18.664;2023-05-10T01:42:46;1.40;;;1.30;;
18320;SDS011;54904;54.350;18.664;2023-05-10T01:45:19;1.80;;;1.70;;
18320;SDS011;54904;54.350;18.664;2023-05-10T01:47:56;3.23;;;1.60;;
18320;SDS011;54904;54.350;18.664;2023-05-10T01:50:32;2.70;;;1.67;;
18320;SDS011;54904;54.350;18.664;2023-05-10T01:53:01;3.00;;;1.40;;
18320;SDS011;54904;54.350;18.664;2023-05-10T01:55:30;1.53;;;1.40;;
18320;SDS011;54904;54.350;18.664;2023-05-10T01:58:02;1.60;;;1.50;;
18320;SDS011;54904;54.350;18.664;2023-05-10T02:00:31;1.70;;;1.60;;
18320;SDS011;54904;54.350;18.664;2023-05-10T02:03:04;1.60;;;1.50;;
18320;SDS011;54904;54.350;18.664;2023-05-10T02:05:33;1.70;;;1.60;;
18320;SDS011;54904;54.350;18.664;2023-05-10T02:08:01;2.10;;;1.87;;
18320;SDS011;54904;54.350;18.664;2023-05-10T02:10:32;1.60;;;1.50;;
18320;SDS011;54904;54.350;18.664;2023-05-10T02:13:00;1.40;;;1.30;;
18320;SDS011;54904;54.350;18.664;2023-05-10T02:15:29;2.80;;;1.70;;
18320;SDS011;54904;54.350;18.664;2023-05-10T02:17:57;1.60;;;1.50;;
18320;SDS011;54904;54.350;18.664;2023-05-10T02:20:28;2.40;;;1.60;;
18320;SDS011;54904;54.350;18.664;2023-05-10T02:22:58;1.90;;;1.67;;
18320;SDS011;54904;54.350;18.664;2023-05-10T02:25:28;1.73;;;1.53;;
18320;SDS011;54904;54.350;18.664;2023-05-10T02:27:57;1.40;;;1.30;;
18320;SDS011;54904;54.350;18.664;2023-05-10T02:30:28;1.50;;;1.40;;
18320;SDS011;54904;54.350;18.664;2023-05-10T02:32:57;1.40;;;1.30;;
18320;SDS011;54904;54.350;18.664;2023-05-10T02:35:26;1.40;;;1.30;;
18320;SDS011;54904;54.350;18.664;2023-05-10T02:37:56;1.40;;;1.30;;
18320;SDS011;54904;54.350;18.664;2023-05-10T02:40:24;1.73;;;1.40;;
18320;SDS011;54904;54.350;18.664;2023-05-10T02:42:54;1.23;;;1.13;;
18320;SDS011;54904;54.350;18.664;2023-05-10T02:45:24;1.70;;;1.60;;
18320;SDS011;54904;54.350;18.664;2023-05-10T02:47:55;1.60;;;1.50;;
18320;SDS011;54904;54.350;18.664;2023-05-10T02:50:23;1.60;;;1.50;;
18320;SDS011;54904;54.350;18.664;2023-05-10T02:52:56;1.67;;;1.57;;
18320;SDS011;54904;54.350;18.664;2023-05-10T02:55:27;1.53;;;1.30;;
18320;SDS011;54904;54.350;18.664;2023-05-10T02:58:00;1.50;;;1.40;;
18320;SDS011;54904;54.350;18.664;2023-05-10T03:00:28;2.00;;;1.80;;
18320;SDS011;54904;54.350;18.664;2023-05-10T03:02:55;2.50;;;1.60;;
18320;SDS011;54904;54.350;18.664;2023-05-10T03:05:23;1.70;;;1.60;;
18320;SDS011;54904;54.350;18.664;2023-05-10T03:07:51;1.47;;;1.37;;
18320;SDS011;54904;54.350;18.664;2023-05-10T03:10:20;1.30;;;1.20;;
18320;SDS011;54904;54.350;18.664;2023-05-10T03:12:56;1.50;;;1.40;;
18320;SDS011;54904;54.350;18.664;2023-05-10T03:15:42;1.70;;;1.60;;
18320;SDS011;54904;54.350;18.664;2023-05-10T03:18:18;1.67;;;1.50;;
18320;SDS011;54904;54.350;18.664;2023-05-10T03:20:49;1.80;;;1.70;;
18320;SDS011;54904;54.350;18.664;2023-05-10T03:23:21;2.00;;;1.33;;
18320;SDS011;54904;54.350;18.664;2023-05-10T03:25:54;1.60;;;1.50;;
18320;SDS011;54904;54.350;18.664;2023-05-10T03:28:22;2.33;;;1.67;;
18320;SDS011;54904;54.350;18.664;2023-05-10T03:30:52;1.97;;;1.60;;
18320;SDS011;54904;54.350;18.664;2023-05-10T03:33:19;2.10;;;1.80;;
18320;SDS011;54904;54.350;18.664;2023-05-10T03:35:46;1.80;;;1.70;;
18320;SDS011;54904;54.350;18.664;2023-05-10T03:38:14;1.77;;;1.23;;
18320;SDS011;54904;54.350;18.664;2023-05-10T03:40:41;1.67;;;1.40;;
18320;SDS011;54904;54.350;18.664;2023-05-10T03:43:10;1.90;;;1.80;;
18320;SDS011;54904;54.350;18.664;2023-05-10T03:45:37;3.07;;;1.90;;
18320;SDS011;54904;54.350;18.664;2023-05-10T03:48:05;2.30;;;2.10;;
18320;SDS011;54904;54.350;18.664;2023-05-10T03:50:32;2.40;;;2.20;;
18320;SDS011;54904;54.350;18.664;2023-05-10T03:52:59;1.90;;;1.80;;
18320;SDS011;54904;54.350;18.664;2023-05-10T03:55:28;3.23;;;2.03;;
18320;SDS011;54904;54.350;18.664;2023-05-10T03:57:55;2.40;;;2.20;;
18320;SDS011;54904;54.350;18.664;2023-05-10T04:00:24;2.50;;;1.70;;
18320;SDS011;54904;54.350;18.664;2023-05-10T04:02:54;2.30;;;2.10;;
18320;SDS011;54904;54.350;18.664;2023-05-10T04:05:22;2.30;;;2.10;;
18320;SDS011;54904;54.350;18.664;2023-05-10T04:07:51;3.77;;;2.20;;
18320;SDS011;54904;54.350;18.664;2023-05-10T04:10:19;2.97;;;2.50;;
18320;SDS011;54904;54.350;18.664;2023-05-10T04:12:46;3.17;;;2.50;;
18320;SDS011;54904;54.350;18.664;2023-05-10T04:15:13;3.13;;;2.40;;
18320;SDS011;54904;54.350;18.664;2023-05-10T04:17:42;3.60;;;2.23;;
18320;SDS011;54904;54.350;18.664;2023-05-10T04:20:09;2.20;;;2.00;;
18320;SDS011;54904;54.350;18.664;2023-05-10T04:22:37;4.37;;;2.70;;
18320;SDS011;54904;54.350;18.664;2023-05-10T04:25:05;2.67;;;2.43;;
18320;SDS011;54904;54.350;18.664;2023-05-10T04:27:33;5.10;;;2.47;;
18320;SDS011;54904;54.350;18.664;2023-05-10T04:30:00;3.00;;;2.30;;
18320;SDS011;54904;54.350;18.664;2023-05-10T04:32:27;5.50;;;2.90;;
18320;SDS011;54904;54.350;18.664;2023-05-10T04:34:56;3.57;;;2.50;;
18320;SDS011;54904;54.350;18.664;2023-05-10T04:37:23;7.30;;;2.80;;
18320;SDS011;54904;54.350;18.664;2023-05-10T04:39:50;3.00;;;2.30;;
18320;SDS011;54904;54.350;18.664;2023-05-10T04:42:17;3.40;;;2.50;;
18320;SDS011;54904;54.350;18.664;2023-05-10T04:44:44;3.30;;;2.30;;
18320;SDS011;54904;54.350;18.664;2023-05-10T04:47:11;2.93;;;2.63;;
18320;SDS011;54904;54.350;18.664;2023-05-10T04:49:39;3.00;;;2.50;;
18320;SDS011;54904;54.350;18.664;2023-05-10T04:52:08;3.17;;;2.50;;
18320;SDS011;54904;54.350;18.664;2023-05-10T04:54:35;3.33;;;2.30;;
18320;SDS011;54904;54.350;18.664;2023-05-10T04:57:02;2.93;;;2.10;;
18320;SDS011;54904;54.350;18.664;2023-05-10T04:59:29;2.93;;;2.20;;
18320;SDS011;54904;54.350;18.664;2023-05-10T05:01:56;2.97;;;2.50;;
18320;SDS011;54904;54.350;18.664;2023-05-10T05:04:23;2.30;;;2.03;;
18320;SDS011;54904;54.350;18.664;2023-05-10T05:06:51;3.27;;;2.17;;
18320;SDS011;54904;54.350;18.664;2023-05-10T05:09:19;1.77;;;1.67;;
18320;SDS011;54904;54.350;18.664;2023-05-10T05:11:46;1.77;;;1.60;;
18320;SDS011;54904;54.350;18.664;2023-05-10T05:14:13;1.50;;;1.40;;
18320;SDS011;54904;54.350;18.664;2023-05-10T05:16:40;3.23;;;1.83;;
18320;SDS011;54904;54.350;18.664;2023-05-10T05:19:07;3.83;;;2.50;;
18320;SDS011;54904;54.350;18.664;2023-05-10T05:21:35;2.10;;;1.90;;
18320;SDS011;54904;54.350;18.664;2023-05-10T05:24:02;2.20;;;1.90;;
18320;SDS011;54904;54.350;18.664;2023-05-10T05:26:31;3.77;;;2.57;;
18320;SDS011;54904;54.350;18.664;2023-05-10T05:28:58;3.33;;;2.70;;
18320;SDS011;54904;54.350;18.664;2023-05-10T05:31:25;2.93;;;2.70;;
18320;SDS011;54904;54.350;18.664;2023-05-10T05:33:52;2.63;;;2.10;;
18320;SDS011;54904;54.350;18.664;2023-05-10T05:36:19;2.90;;;2.27;;
18320;SDS011;54904;54.350;18.664;2023-05-10T05:38:46;6.80;;;2.80;;
18320;SDS011;54904;54.350;18.664;2023-05-10T05:41:13;3.23;;;2.73;;
18320;SDS011;54904;54.350;18.664;2023-05-10T05:43:42;6.57;;;2.90;;
18320;SDS011;54904;54.350;18.664;2023-05-10T05:46:09;2.83;;;2.40;;
18320;SDS011;54904;54.350;18.664;2023-05-10T05:48:36;2.57;;;2.30;;
18320;SDS011;54904;54.350;18.664;2023-05-10T05:51:03;2.43;;;2.10;;
18320;SDS011;54904;54.350;18.664;2023-05-10T05:53:30;7.23;;;2.57;;
18320;SDS011;54904;54.350;18.664;2023-05-10T05:55:57;2.50;;;2.30;;
18320;SDS011;54904;54.350;18.664;2023-05-10T05:58:25;3.93;;;2.60;;
18320;SDS011;54904;54.350;18.664;2023-05-10T06:00:54;3.23;;;2.80;;
18320;SDS011;54904;54.350;18.664;2023-05-10T06:03:21;3.03;;;2.73;;
18320;SDS011;54904;54.350;18.664;2023-05-10T06:05:49;5.57;;;2.87;;
18320;SDS011;54904;54.350;18.664;2023-05-10T06:08:16;3.37;;;2.77;;
18320;SDS011;54904;54.350;18.664;2023-05-10T06:10:43;3.67;;;2.70;;
18320;SDS011;54904;54.350;18.664;2023-05-10T06:13:10;2.83;;;2.60;;
18320;SDS011;54904;54.350;18.664;2023-05-10T06:15:37;3.70;;;2.90;;
18320;SDS011;54904;54.350;18.664;2023-05-10T06:18:06;2.50;;;2.30;;
18320;SDS011;54904;54.350;18.664;2023-05-10T06:20:33;5.73;;;2.50;;
18320;SDS011;54904;54.350;18.664;2023-05-10T06:23:00;4.20;;;2.87;;
18320;SDS011;54904;54.350;18.664;2023-05-10T06:25:27;3.97;;;2.97;;
18320;SDS011;54904;54.350;18.664;2023-05-10T06:27:54;4.00;;;2.90;;
18320;SDS011;54904;54.350;18.664;2023-05-10T06:30:23;6.03;;;2.80;;
18320;SDS011;54904;54.350;18.664;2023-05-10T06:32:53;3.50;;;2.50;;
18320;SDS011;54904;54.350;18.664;2023-05-10T06:35:22;2.87;;;2.60;;
18320;SDS011;54904;54.350;18.664;2023-05-10T06:37:50;3.27;;;2.57;;
18320;SDS011;54904;54.350;18.664;2023-05-10T06:40:17;5.70;;;2.70;;
18320;SDS011;54904;54.350;18.664;2023-05-10T06:42:45;2.87;;;2.57;;
18320;SDS011;54904;54.350;18.664;2023-05-10T06:45:12;3.77;;;2.47;;
18320;SDS011;54904;54.350;18.664;2023-05-10T06:47:40;4.10;;;2.47;;
18320;SDS011;54904;54.350;18.664;2023-05-10T06:50:07;3.57;;;2.43;;
18320;SDS011;54904;54.350;18.664;2023-05-10T06:52:37;5.50;;;2.70;;
18320;SDS011;54904;54.350;18.664;2023-05-10T06:55:05;7.30;;;3.40;;
18320;SDS011;54904;54.350;18.664;2023-05-10T06:57:33;9.80;;;2.83;;
18320;SDS011;54904;54.350;18.664;2023-05-10T07:00:01;4.73;;;2.57;;
18320;SDS011;54904;54.350;18.664;2023-05-10T07:02:30;5.17;;;3.00;;
18320;SDS011;54904;54.350;18.664;2023-05-10T07:04:57;4.77;;;2.40;;
18320;SDS011;54904;54.350;18.664;2023-05-10T07:07:24;3.60;;;2.60;;
18320;SDS011;54904;54.350;18.664;2023-05-10T07:09:55;3.67;;;2.67;;
18320;SDS011;54904;54.350;18.664;2023-05-10T07:12:22;2.83;;;2.33;;
18320;SDS011;54904;54.350;18.664;2023-05-10T07:14:50;4.80;;;2.30;;
18320;SDS011;54904;54.350;18.664;2023-05-10T07:17:17;2.50;;;2.30;;
18320;SDS011;54904;54.350;18.664;2023-05-10T07:19:44;3.97;;;2.33;;
18320;SDS011;54904;54.350;18.664;2023-05-10T07:22:11;2.40;;;2.20;;
18320;SDS011;54904;54.350;18.664;2023-05-10T07:24:38;2.33;;;2.10;;
18320;SDS011;54904;54.350;18.664;2023-05-10T07:27:07;4.47;;;2.23;;
18320;SDS011;54904;54.350;18.664;2023-05-10T07:29:34;5.17;;;2.10;;
18320;SDS011;54904;54.350;18.664;2023-05-10T07:32:01;6.37;;;2.20;;
18320;SDS011;54904;54.350;18.664;2023-05-10T07:34:28;3.27;;;2.03;;
18320;SDS011;54904;54.350;18.664;2023-05-10T07:36:57;4.97;;;2.37;;
18320;SDS011;54904;54.350;18.664;2023-05-10T07:39:25;4.90;;;2.40;;
18320;SDS011;54904;54.350;18.664;2023-05-10T07:41:52;3.30;;;2.40;;
18320;SDS011;54904;54.350;18.664;2023-05-10T07:44:20;5.50;;;2.40;;
18320;SDS011;54904;54.350;18.664;2023-05-10T07:46:48;4.40;;;2.10;;
18320;SDS011;54904;54.350;18.664;2023-05-10T07:49:16;3.13;;;2.00;;
18320;SDS011;54904;54.350;18.664;2023-05-10T07:51:43;2.77;;;1.90;;
18320;SDS011;54904;54.350;18.664;2023-05-10T07:54:10;2.53;;;1.77;;
18320;SDS011;54904;54.350;18.664;2023-05-10T07:56:37;2.40;;;2.10;;
18320;SDS011;54904;54.350;18.664;2023-05-10T07:59:07;2.73;;;2.40;;
18320;SDS011;54904;54.350;18.664;2023-05-10T08:01:36;5.30;;;2.40;;
18320;SDS011;54904;54.350;18.664;2023-05-10T08:04:03;2.60;;;2.03;;
18320;SDS011;54904;54.350;18.664;2023-05-10T08:06:30;5.07;;;2.53;;
18320;SDS011;54904;54.350;18.664;2023-05-10T08:08:58;2.33;;;2.10;;
18320;SDS011;54904;54.350;18.664;2023-05-10T08:11:25;2.50;;;2.30;;
18320;SDS011;54904;54.350;18.664;2023-05-10T08:13:53;3.17;;;1.97;;
18320;SDS011;54904;54.350;18.664;2023-05-10T08:16:20;3.53;;;2.10;;
18320;SDS011;54904;54.350;18.664;2023-05-10T08:18:49;2.00;;;1.90;;
18320;SDS011;54904;54.350;18.664;2023-05-10T08:21:16;2.00;;;1.80;;
18320;SDS011;54904;54.350;18.664;2023-05-10T08:23:43;9.00;;;2.13;;
18320;SDS011;54904;54.350;18.664;2023-05-10T08:26:10;2.63;;;2.07;;
18320;SDS011;54904;54.350;18.664;2023-05-10T08:28:37;3.47;;;2.17;;
18320;SDS011;54904;54.350;18.664;2023-05-10T08:31:05;1.73;;;1.63;;
18320;SDS011;54904;54.350;18.664;2023-05-10T08:33:32;4.87;;;2.30;;
18320;SDS011;54904;54.350;18.664;2023-05-10T08:36:00;2.20;;;2.00;;
18320;SDS011;54904;54.350;18.664;2023-05-10T08:38:27;2.37;;;1.53;;
18320;SDS011;54904;54.350;18.664;2023-05-10T08:40:55;1.97;;;1.83;;
18320;SDS011;54904;54.350;18.664;2023-05-10T08:43:25;8.17;;;1.90;;
18320;SDS011;54904;54.350;18.664;2023-05-10T08:45:54;12.70;;;2.10;;
18320;SDS011;54904;54.350;18.664;2023-05-10T08:48:23;6.53;;;1.83;;
18320;SDS011;54904;54.350;18.664;2023-05-10T08:50:52;3.83;;;1.73;;
18320;SDS011;54904;54.350;18.664;2023-05-10T08:53:22;2.80;;;1.85;;
18320;SDS011;54904;54.350;18.664;2023-05-10T08:55:52;5.05;;;1.67;;
18320;SDS011;54904;54.350;18.664;2023-05-10T08:58:19;4.22;;;1.85;;
18320;SDS011;54904;54.350;18.664;2023-05-10T09:00:48;4.28;;;1.83;;
18320;SDS011;54904;54.350;18.664;2023-05-10T09:03:17;7.75;;;2.25;;
18320;SDS011;54904;54.350;18.664;2023-05-10T09:05:44;3.88;;;2.08;;
18320;SDS011;54904;54.350;18.664;2023-05-10T09:08:11;4.32;;;2.13;;
18320;SDS011;54904;54.350;18.664;2023-05-10T09:10:43;6.03;;;1.92;;
18320;SDS011;54904;54.350;18.664;2023-05-10T09:13:12;5.38;;;1.52;;
18320;SDS011;54904;54.350;18.664;2023-05-10T09:15:41;3.63;;;2.00;;
18320;SDS011;54904;54.350;18.664;2023-05-10T09:18:09;4.18;;;2.15;;
18320;SDS011;54904;54.350;18.664;2023-05-10T09:20:36;7.70;;;2.00;;
18320;SDS011;54904;54.350;18.664;2023-05-10T09:23:03;6.95;;;1.85;;
18320;SDS011;54904;54.350;18.664;2023-05-10T09:25:31;3.03;;;1.92;;
18320;SDS011;54904;54.350;18.664;2023-05-10T09:28:00;4.65;;;1.63;;
18320;SDS011;54904;54.350;18.664;2023-05-10T09:30:27;2.13;;;1.77;;
18320;SDS011;54904;54.350;18.664;2023-05-10T09:32:56;10.18;;;1.70;;
18320;SDS011;54904;54.350;18.664;2023-05-10T09:35:24;4.25;;;1.92;;
18320;SDS011;54904;54.350;18.664;2023-05-10T09:37:52;9.00;;;1.85;;
18320;SDS011;54904;54.350;18.664;2023-05-10T09:40:22;2.80;;;2.10;;
18320;SDS011;54904;54.350;18.664;2023-05-10T09:42:51;3.35;;;1.73;;
18320;SDS011;54904;54.350;18.664;2023-05-10T09:45:22;7.68;;;2.30;;
18320;SDS011;54904;54.350;18.664;2023-05-10T09:47:49;2.55;;;2.00;;
18320;SDS011;54904;54.350;18.664;2023-05-10T09:50:16;3.10;;;1.90;;
18320;SDS011;54904;54.350;18.664;2023-05-10T09:52:46;5.28;;;2.17;;
18320;SDS011;54904;54.350;18.664;2023-05-10T09:55:14;4.55;;;2.20;;
18320;SDS011;54904;54.350;18.664;2023-05-10T09:57:42;5.43;;;1.90;;
18320;SDS011;54904;54.350;18.664;2023-05-10T10:00:09;3.00;;;1.92;;
18320;SDS011;54904;54.350;18.664;2023-05-10T10:02:44;4.18;;;1.95;;
18320;SDS011;54904;54.350;18.664;2023-05-10T10:05:12;19.42;;;2.45;;
18320;SDS011;54904;54.350;18.664;2023-05-10T10:07:40;2.35;;;1.75;;
18320;SDS011;54904;54.350;18.664;2023-05-10T10:10:07;2.20;;;1.80;;
18320;SDS011;54904;54.350;18.664;2023-05-10T10:12:37;2.70;;;1.90;;
18320;SDS011;54904;54.350;18.664;2023-05-10T10:15:08;2.72;;;1.80;;
18320;SDS011;54904;54.350;18.664;2023-05-10T10:17:35;7.80;;;2.45;;
18320;SDS011;54904;54.350;18.664;2023-05-10T10:20:06;3.20;;;1.85;;
18320;SDS011;54904;54.350;18.664;2023-05-10T10:22:34;6.13;;;2.10;;
18320;SDS011;54904;54.350;18.664;2023-05-10T10:25:03;5.90;;;2.20;;
18320;SDS011;54904;54.350;18.664;2023-05-10T10:27:34;2.10;;;1.90;;
18320;SDS011;54904;54.350;18.664;2023-05-10T10:30:10;7.28;;;1.88;;
18320;SDS011;54904;54.350;18.664;2023-05-10T10:32:49;2.75;;;1.92;;
18320;SDS011;54904;54.350;18.664;2023-05-10T10:35:45;6.22;;;2.25;;
18320;SDS011;54904;54.350;18.664;2023-05-10T10:38:13;5.57;;;1.85;;
18320;SDS011;54904;54.350;18.664;2023-05-10T10:40:40;3.42;;;1.70;;
18320;SDS011;54904;54.350;18.664;2023-05-10T10:43:23;4.35;;;1.90;;
18320;SDS011;54904;54.350;18.664;2023-05-10T10:46:09;2.10;;;1.77;;
18320;SDS011;54904;54.350;18.664;2023-05-10T10:48:38;3.72;;;2.22;;
18320;SDS011;54904;54.350;18.664;2023-05-10T10:51:07;2.92;;;1.80;;
18320;SDS011;54904;54.350;18.664;2023-05-10T10:53:34;2.53;;;1.88;;
18320;SDS011;54904;54.350;18.664;2023-05-10T10:56:05;2.97;;;1.63;;
18320;SDS011;54904;54.350;18.664;2023-05-10T10:58:35;5.47;;;2.17;;
18320;SDS011;54904;54.350;18.664;2023-05-10T11:01:10;5.40;;;2.20;;
18320;SDS011;54904;54.350;18.664;2023-05-10T11:03:38;2.65;;;1.90;;
18320;SDS011;54904;54.350;18.664;2023-05-10T11:06:07;3.13;;;1.70;;
18320;SDS011;54904;54.350;18.664;2023-05-10T11:08:34;8.50;;;2.08;;
18320;SDS011;54904;54.350;18.664;2023-05-10T11:11:09;2.35;;;1.70;;
18320;SDS011;54904;54.350;18.664;2023-05-10T11:13:41;7.45;;;2.03;;
18320;SDS011;54904;54.350;18.664;2023-05-10T11:16:10;2.97;;;1.85;;
18320;SDS011;54904;54.350;18.664;2023-05-10T11:18:39;2.17;;;1.67;;
18320;SDS011;54904;54.350;18.664;2023-05-10T11:21:09;3.45;;;2.05;;
18320;SDS011;54904;54.350;18.664;2023-05-10T11:23:47;4.43;;;2.05;;
18320;SDS011;54904;54.350;18.664;2023-05-10T11:26:16;6.88;;;2.42;;
18320;SDS011;54904;54.350;18.664;2023-05-10T11:28:48;7.57;;;1.70;;
18320;SDS011;54904;54.350;18.664;2023-05-10T11:31:15;5.60;;;2.35;;
18320;SDS011;54904;54.350;18.664;2023-05-10T11:33:43;4.43;;;2.17;;
18320;SDS011;54904;54.350;18.664;2023-05-10T11:36:12;4.20;;;2.08;;
18320;SDS011;54904;54.350;18.664;2023-05-10T11:38:41;5.50;;;1.90;;
18320;SDS011;54904;54.350;18.664;2023-05-10T11:41:08;1.95;;;1.80;;
18320;SDS011;54904;54.350;18.664;2023-05-10T11:43:36;4.03;;;1.92;;
18320;SDS011;54904;54.350;18.664;2023-05-10T11:46:04;5.25;;;1.88;;
18320;SDS011;54904;54.350;18.664;2023-05-10T11:48:32;6.15;;;2.00;;
18320;SDS011;54904;54.350;18.664;2023-05-10T11:51:00;5.38;;;1.90;;
18320;SDS011;54904;54.350;18.664;2023-05-10T11:53:32;6.50;;;2.22;;
18320;SDS011;54904;54.350;18.664;2023-05-10T11:56:03;1.75;;;1.60;;
18320;SDS011;54904;54.350;18.664;2023-05-10T11:58:30;3.22;;;1.70;;
18320;SDS011;54904;54.350;18.664;2023-05-10T12:00:58;5.03;;;2.00;;
18320;SDS011;54904;54.350;18.664;2023-05-10T12:03:25;3.65;;;1.77;;
18320;SDS011;54904;54.350;18.664;2023-05-10T12:05:53;2.17;;;1.77;;
18320;SDS011;54904;54.350;18.664;2023-05-10T12:08:21;3.28;;;2.15;;
18320;SDS011;54904;54.350;18.664;2023-05-10T12:10:51;1.98;;;1.60;;
18320;SDS011;54904;54.350;18.664;2023-05-10T12:13:18;2.75;;;1.88;;
18320;SDS011;54904;54.350;18.664;2023-05-10T12:15:46;2.20;;;2.00;;
18320;SDS011;54904;54.350;18.664;2023-05-10T12:18:14;9.95;;;2.00;;
18320;SDS011;54904;54.350;18.664;2023-05-10T12:20:41;2.72;;;1.50;;
18320;SDS011;54904;54.350;18.664;2023-05-10T12:23:09;2.72;;;2.15;;
18320;SDS011;54904;54.350;18.664;2023-05-10T12:25:37;2.85;;;1.70;;
18320;SDS011;54904;54.350;18.664;2023-05-10T12:28:07;2.20;;;1.80;;
18320;SDS011;54904;54.350;18.664;2023-05-10T12:30:35;5.05;;;2.17;;
18320;SDS011;54904;54.350;18.664;2023-05-10T12:33:07;1.90;;;1.80;;
18320;SDS011;54904;54.350;18.664;2023-05-10T12:35:43;2.30;;;1.60;;
18320;SDS011;54904;54.350;18.664;2023-05-10T12:41:04;4.75;;;1.70;;
18320;SDS011;54904;54.350;18.664;2023-05-10T12:43:33;6.25;;;1.50;;
18320;SDS011;54904;54.350;18.664;2023-05-10T12:46:05;3.88;;;1.80;;
18320;SDS011;54904;54.350;18.664;2023-05-10T12:48:33;2.80;;;1.67;;
18320;SDS011;54904;54.350;18.664;2023-05-10T12:51:00;6.70;;;1.80;;
18320;SDS011;54904;54.350;18.664;2023-05-10T12:53:27;8.85;;;1.70;;
18320;SDS011;54904;54.350;18.664;2023-05-10T12:55:55;10.45;;;2.28;;
18320;SDS011;54904;54.350;18.664;2023-05-10T12:58:22;3.47;;;2.13;;
18320;SDS011;54904;54.350;18.664;2023-05-10T13:00:51;5.15;;;1.60;;
18320;SDS011;54904;54.350;18.664;2023-05-10T13:03:21;5.88;;;1.98;;
18320;SDS011;54904;54.350;18.664;2023-05-10T13:05:49;6.07;;;1.80;;
18320;SDS011;54904;54.350;18.664;2023-05-10T13:08:16;16.52;;;3.20;;
18320;SDS011;54904;54.350;18.664;2023-05-10T13:10:44;7.72;;;1.80;;
18320;SDS011;54904;54.350;18.664;2023-05-10T13:13:11;3.10;;;1.73;;
18320;SDS011;54904;54.350;18.664;2023-05-10T13:15:38;2.58;;;1.98;;
18320;SDS011;54904;54.350;18.664;2023-05-10T13:18:07;5.93;;;2.05;;
18320;SDS011;54904;54.350;18.664;2023-05-10T13:20:35;3.58;;;1.88;;
18320;SDS011;54904;54.350;18.664;2023-05-10T13:23:03;2.20;;;1.67;;
18320;SDS011;54904;54.350;18.664;2023-05-10T13:25:33;2.15;;;1.80;;
18320;SDS011;54904;54.350;18.664;2023-05-10T13:28:02;2.38;;;1.40;;
18320;SDS011;54904;54.350;18.664;2023-05-10T13:30:29;6.25;;;1.83;;
18320;SDS011;54904;54.350;18.664;2023-05-10T13:32:57;6.72;;;2.10;;
18320;SDS011;54904;54.350;18.664;2023-05-10T13:35:26;4.85;;;1.90;;
18320;SDS011;54904;54.350;18.664;2023-05-10T13:37:54;3.38;;;1.52;;
18320;SDS011;54904;54.350;18.664;2023-05-10T13:40:23;2.80;;;2.22;;
18320;SDS011;54904;54.350;18.664;2023-05-10T13:42:50;7.82;;;2.00;;
18320;SDS011;54904;54.350;18.664;2023-05-10T13:45:18;3.35;;;1.88;;
18320;SDS011;54904;54.350;18.664;2023-05-10T13:47:46;1.80;;;1.70;;
18320;SDS011;54904;54.350;18.664;2023-05-10T13:50:13;9.48;;;2.25;;
18320;SDS011;54904;54.350;18.664;2023-05-10T13:52:42;6.05;;;1.92;;
18320;SDS011;54904;54.350;18.664;2023-05-10T13:55:09;3.92;;;1.52;;
18320;SDS011;54904;54.350;18.664;2023-05-10T13:57:37;13.13;;;2.05;;
18320;SDS011;54904;54.350;18.664;2023-05-10T14:00:05;4.13;;;1.90;;
18320;SDS011;54904;54.350;18.664;2023-05-10T14:02:33;1.73;;;1.60;;
18320;SDS011;54904;54.350;18.664;2023-05-10T14:05:00;4.93;;;1.77;;
18320;SDS011;54904;54.350;18.664;2023-05-10T14:07:28;2.78;;;1.77;;
18320;SDS011;54904;54.350;18.664;2023-05-10T14:09:57;4.32;;;1.80;;
18320;SDS011;54904;54.350;18.664;2023-05-10T14:12:24;5.32;;;1.98;;
18320;SDS011;54904;54.350;18.664;2023-05-10T14:14:52;2.70;;;1.60;;
18320;SDS011;54904;54.350;18.664;2023-05-10T14:17:19;2.78;;;1.73;;
18320;SDS011;54904;54.350;18.664;2023-05-10T14:19:47;3.50;;;1.92;;
18320;SDS011;54904;54.350;18.664;2023-05-10T14:22:15;2.50;;;1.70;;
18320;SDS011;54904;54.350;18.664;2023-05-10T14:24:42;6.35;;;1.90;;
18320;SDS011;54904;54.350;18.664;2023-05-10T14:27:13;10.73;;;1.75;;
18320;SDS011;54904;54.350;18.664;2023-05-10T14:29:41;3.30;;;2.00;;
18320;SDS011;54904;54.350;18.664;2023-05-10T14:32:08;6.13;;;2.00;;
18320;SDS011;54904;54.350;18.664;2023-05-10T14:34:36;4.60;;;1.90;;
18320;SDS011;54904;54.350;18.664;2023-05-10T14:37:04;13.65;;;2.00;;
18320;SDS011;54904;54.350;18.664;2023-05-10T14:39:31;4.18;;;1.88;;
18320;SDS011;54904;54.350;18.664;2023-05-10T14:41:59;4.97;;;1.70;;
18320;SDS011;54904;54.350;18.664;2023-05-10T14:44:29;4.07;;;1.95;;
18320;SDS011;54904;54.350;18.664;2023-05-10T14:46:56;1.95;;;1.60;;